Time;durP1;ratioP1;P1;durP2;ratioP2;P2;SDS_P1;SDS_P2;PMS_P1;PMS_P2;Temp;Humidity;BMP_temperature;BMP_pressure;BME280_temperature;BME280_humidity;BME280_pressure;Samples;Min_cycle;Max_cycle;Signal;HPM_P1;HPM_P2
2022/10/23 00:00:40;;;;;;;23.85;20.00;;;;;;;;;;5113506;28;20039;-82
2022/10/23 00:03:06;;;;;;;21.95;19.65;;;;;;;;;;5113590;28;20032;-82
2022/10/23 00:05:33;;;;;;;19.85;17.83;;;;;;;;;;5113462;28;20024;-82
2022/10/23 00:08:00;;;;;;;19.95;17.88;;;;;;;;;;5113241;28;20085;-82
2022/10/23 00:10:27;;;;;;;18.08;16.17;;;;;;;;;;5095052;28;20507;-82
2022/10/23 00:12:53;;;;;;;19.55;16.98;;;;;;;;;;5113300;28;20485;-82
2022/10/23 00:15:20;;;;;;;21.17;17.08;;;;;;;;;;5113378;28;20047;-82
2022/10/23 00:17:46;;;;;;;21.48;18.08;;;;;;;;;;5115332;28;20028;-81
2022/10/23 00:20:13;;;;;;;25.08;21.98;;;;;;;;;;5097484;28;20027;-82
2022/10/23 00:22:39;;;;;;;20.77;18.60;;;;;;;;;;5113129;28;20019;-82
2022/10/23 00:25:07;;;;;;;27.17;21.45;;;;;;;;;;5113108;28;20466;-82
2022/10/23 00:27:33;;;;;;;26.05;21.15;;;;;;;;;;5113082;28;20081;-82
2022/10/23 00:30:00;;;;;;;21.25;19.05;;;;;;;;;;5112872;28;20435;-82
2022/10/23 00:32:26;;;;;;;19.92;16.70;;;;;;;;;;5113051;28;20143;-82
2022/10/23 00:34:52;;;;;;;22.08;18.10;;;;;;;;;;5112937;28;20032;-82
2022/10/23 00:37:18;;;;;;;21.00;17.33;;;;;;;;;;5112778;28;20026;-82
2022/10/23 00:39:44;;;;;;;19.90;17.75;;;;;;;;;;5112960;28;20467;-82
2022/10/23 00:42:16;;;;;;;22.70;19.48;;;;;;;;;;5112807;28;20035;-82
2022/10/23 00:44:42;;;;;;;26.42;22.00;;;;;;;;;;5112796;28;20028;-82
2022/10/23 00:47:08;;;;;;;25.45;20.48;;;;;;;;;;5112948;28;20023;-82
2022/10/23 00:49:34;;;;;;;26.58;20.95;;;;;;;;;;5112774;28;20023;-81
2022/10/23 00:52:03;;;;;;;29.90;22.13;;;;;;;;;;5112539;28;20056;-82
2022/10/23 00:54:30;;;;;;;23.98;20.25;;;;;;;;;;5112844;28;20027;-82
2022/10/23 00:56:58;;;;;;;23.65;19.15;;;;;;;;;;5112751;28;20027;-82
2022/10/23 00:59:24;;;;;;;27.60;22.35;;;;;;;;;;5112879;28;20024;-82
2022/10/23 01:01:51;;;;;;;27.60;23.65;;;;;;;;;;5112541;28;20031;-82
2022/10/23 01:04:17;;;;;;;26.45;22.45;;;;;;;;;;5094434;28;20035;-82
2022/10/23 01:07:02;;;;;;;24.67;19.77;;;;;;;;;;5094456;28;20063;-82
2022/10/23 01:09:28;;;;;;;;;;;;;;;;;;5113207;28;20489;-82
2022/10/23 01:11:57;;;;;;;21.27;18.95;;;;;;;;;;5112678;28;19904;-82
2022/10/23 01:14:23;;;;;;;22.98;19.52;;;;;;;;;;5112802;28;20030;-82
2022/10/23 01:16:49;;;;;;;20.90;17.98;;;;;;;;;;5112492;28;20085;-82
2022/10/23 01:19:15;;;;;;;21.30;18.88;;;;;;;;;;5112728;28;20482;-82
2022/10/23 01:21:45;;;;;;;18.70;16.67;;;;;;;;;;5094097;28;20485;-82
2022/10/23 01:24:18;;;;;;;20.70;16.80;;;;;;;;;;5094415;28;20815;-82
2022/10/23 01:27:08;;;;;;;20.40;18.23;;;;;;;;;;5112438;28;20084;-82
2022/10/23 01:29:39;;;;;;;25.90;19.75;;;;;;;;;;5099640;28;20067;-82
2022/10/23 01:32:24;;;;;;;23.70;19.65;;;;;;;;;;5112541;28;20081;-82
2022/10/23 01:34:59;;;;;;;18.83;16.83;;;;;;;;;;5112231;28;20023;-83
2022/10/23 01:37:44;;;;;;;19.23;16.25;;;;;;;;;;5112307;28;20058;-83
2022/10/23 01:40:10;;;;;;;;;;;;;;;;;;5112769;28;20023;-82
2022/10/23 01:42:39;;;;;;;20.50;16.92;;;;;;;;;;5112182;28;20324;-83
2022/10/23 01:45:07;;;;;;;18.52;16.48;;;;;;;;;;5112378;28;20123;-82
2022/10/23 01:47:35;;;;;;;18.20;15.98;;;;;;;;;;5112186;28;20081;-82
2022/10/23 01:50:02;;;;;;;20.73;18.13;;;;;;;;;;5115966;28;20036;-82
2022/10/23 01:52:28;;;;;;;20.67;18.02;;;;;;;;;;5115680;28;20108;-82
2022/10/23 01:54:56;;;;;;;19.08;16.30;;;;;;;;;;5115907;28;20081;-82
2022/10/23 01:57:23;;;;;;;21.90;18.55;;;;;;;;;;5116059;28;20051;-82
2022/10/23 01:59:51;;;;;;;21.23;18.00;;;;;;;;;;5115849;28;20035;-83
2022/10/23 02:02:18;;;;;;;20.85;17.85;;;;;;;;;;5115946;28;20478;-82
2022/10/23 02:04:50;;;;;;;19.45;17.45;;;;;;;;;;5115396;28;20024;-82
2022/10/23 02:07:16;;;;;;;23.10;19.33;;;;;;;;;;5115738;28;20019;-82
2022/10/23 02:09:43;;;;;;;22.98;19.58;;;;;;;;;;5115339;28;20084;-82
2022/10/23 02:12:12;;;;;;;23.20;17.88;;;;;;;;;;5115606;28;20027;-82
2022/10/23 02:14:43;;;;;;;20.63;18.45;;;;;;;;;;5115171;28;20058;-82
2022/10/23 02:17:32;;;;;;;20.88;17.88;;;;;;;;;;5115536;28;20027;-82
2022/10/23 02:20:17;;;;;;;21.35;18.48;;;;;;;;;;5102468;28;20071;-82
2022/10/23 02:22:43;;;;;;;;;;;;;;;;;;5115752;28;20555;-82
2022/10/23 02:25:21;;;;;;;19.65;16.15;;;;;;;;;;5115357;28;19907;-82
2022/10/23 02:27:50;;;;;;;21.40;17.17;;;;;;;;;;5096632;28;20027;-82
2022/10/23 02:30:17;;;;;;;21.15;17.95;;;;;;;;;;5115336;28;20031;-82
2022/10/23 02:32:48;;;;;;;21.73;17.75;;;;;;;;;;5133849;27;20063;-83
2022/10/23 02:35:14;;;;;;;19.52;17.45;;;;;;;;;;5114305;27;20027;-82
2022/10/23 02:37:40;;;;;;;18.33;16.38;;;;;;;;;;5134859;27;20023;-82
2022/10/23 02:40:08;;;;;;;22.17;18.17;;;;;;;;;;5134793;27;20389;-82
2022/10/23 02:42:37;;;;;;;22.27;19.98;;;;;;;;;;5132418;27;20023;-82
2022/10/23 02:45:06;;;;;;;26.30;20.10;;;;;;;;;;5134897;27;20037;-83
2022/10/23 02:47:51;;;;;;;20.83;18.23;;;;;;;;;;5134717;27;20029;-82
2022/10/23 02:50:16;;;;;;;;;;;;;;;;;;5132926;27;20083;-82
2022/10/23 02:52:49;;;;;;;25.55;22.30;;;;;;;;;;5134601;27;19903;-82
2022/10/23 02:55:33;;;;;;;41.65;31.10;;;;;;;;;;5114757;27;20031;-82
2022/10/23 02:58:03;;;;;;;48.38;37.92;;;;;;;;;;5114755;28;20027;-82
2022/10/23 03:00:30;;;;;;;36.65;27.55;;;;;;;;;;5114642;28;20076;-82
2022/10/23 03:02:58;;;;;;;24.38;20.20;;;;;;;;;;5114841;28;20036;-82
2022/10/23 03:05:27;;;;;;;25.95;23.15;;;;;;;;;;5114722;28;20043;-82
2022/10/23 03:07:53;;;;;;;29.95;26.55;;;;;;;;;;5114614;28;20024;-82
2022/10/23 03:10:20;;;;;;;29.85;24.95;;;;;;;;;;5114613;28;20106;-82
2022/10/23 03:12:47;;;;;;;28.85;23.90;;;;;;;;;;5114458;28;20027;-82
2022/10/23 03:15:13;;;;;;;31.52;26.23;;;;;;;;;;5114343;28;20390;-82
2022/10/23 03:17:40;;;;;;;39.88;32.97;;;;;;;;;;5114242;28;20027;-82
2022/10/23 03:20:06;;;;;;;31.15;27.02;;;;;;;;;;5114164;28;20374;-82
2022/10/23 03:22:33;;;;;;;27.58;22.52;;;;;;;;;;5114318;28;20470;-82
2022/10/23 03:24:59;;;;;;;24.45;19.98;;;;;;;;;;5099096;28;20088;-82
2022/10/23 03:27:25;;;;;;;26.33;23.48;;;;;;;;;;5114366;28;20028;-82
2022/10/23 03:29:51;;;;;;;23.85;21.17;;;;;;;;;;5114104;28;20466;-82
2022/10/23 03:32:17;;;;;;;26.20;23.40;;;;;;;;;;5113937;28;20032;-82
2022/10/23 03:34:43;;;;;;;25.50;22.73;;;;;;;;;;5114004;28;20057;-82
2022/10/23 03:37:09;;;;;;;26.02;22.13;;;;;;;;;;5095639;28;20086;-82
2022/10/23 03:39:38;;;;;;;26.33;21.98;;;;;;;;;;5113965;28;20032;-82
2022/10/23 03:42:04;;;;;;;28.05;24.65;;;;;;;;;;5113871;28;20478;-82
2022/10/23 03:44:30;;;;;;;30.17;26.00;;;;;;;;;;5095636;28;20038;-82
2022/10/23 03:46:56;;;;;;;33.65;26.85;;;;;;;;;;5113704;28;20054;-82
2022/10/23 03:49:22;;;;;;;25.77;22.95;;;;;;;;;;5113625;28;20059;-82
2022/10/23 03:51:51;;;;;;;29.50;24.02;;;;;;;;;;5091789;28;20064;-82
2022/10/23 03:54:28;;;;;;;24.55;22.00;;;;;;;;;;5093174;28;20467;-82
2022/10/23 03:56:54;;;;;;;25.30;20.63;;;;;;;;;;5093275;28;20028;-82
2022/10/23 03:59:21;;;;;;;26.65;22.08;;;;;;;;;;5091939;28;20032;-82
2022/10/23 04:01:47;;;;;;;22.88;20.48;;;;;;;;;;5093109;28;20039;-82
2022/10/23 04:04:13;;;;;;;24.05;21.33;;;;;;;;;;5093254;28;20422;-82
2022/10/23 04:06:39;;;;;;;34.42;29.75;;;;;;;;;;5093111;28;20028;-82
2022/10/23 04:09:06;;;;;;;90.22;67.40;;;;;;;;;;5093074;28;20076;-82
2022/10/23 04:11:32;;;;;;;92.38;76.30;;;;;;;;;;5092668;28;20028;-82
2022/10/23 04:13:58;;;;;;;30.05;25.48;;;;;;;;;;5092707;28;20028;-82
2022/10/23 04:16:24;;;;;;;29.60;25.58;;;;;;;;;;5091639;28;20084;-82
2022/10/23 04:18:51;;;;;;;24.83;22.15;;;;;;;;;;5093012;28;20389;-82
2022/10/23 04:21:17;;;;;;;28.35;24.23;;;;;;;;;;5092832;28;20032;-82
2022/10/23 04:23:43;;;;;;;30.25;25.33;;;;;;;;;;5092857;28;20073;-82
2022/10/23 04:26:09;;;;;;;27.17;24.00;;;;;;;;;;5092802;28;20382;-82
2022/10/23 04:28:36;;;;;;;29.83;25.00;;;;;;;;;;5091494;28;20024;-82
2022/10/23 04:31:02;;;;;;;30.85;26.10;;;;;;;;;;5093081;28;20032;-82
2022/10/23 04:33:28;;;;;;;30.35;26.40;;;;;;;;;;5092019;28;20062;-82
2022/10/23 04:35:54;;;;;;;29.25;26.10;;;;;;;;;;5092814;28;20081;-82
2022/10/23 04:38:20;;;;;;;32.30;28.23;;;;;;;;;;5092489;28;20467;-82
2022/10/23 04:40:46;;;;;;;40.72;32.75;;;;;;;;;;5092537;28;20067;-82
2022/10/23 04:43:12;;;;;;;50.33;40.78;;;;;;;;;;5092642;28;20032;-82
2022/10/23 04:45:39;;;;;;;55.22;42.40;;;;;;;;;;5091336;28;20439;-82
2022/10/23 04:48:05;;;;;;;46.28;38.38;;;;;;;;;;5092751;28;20034;-82
2022/10/23 04:50:31;;;;;;;48.22;39.10;;;;;;;;;;5094751;28;20032;-82
2022/10/23 04:52:57;;;;;;;49.90;40.92;;;;;;;;;;5094653;28;20023;-83
2022/10/23 04:55:26;;;;;;;42.42;36.63;;;;;;;;;;5112816;28;20023;-82
2022/10/23 04:57:52;;;;;;;38.55;34.25;;;;;;;;;;5112741;28;20378;-82
2022/10/23 05:00:19;;;;;;;38.95;31.55;;;;;;;;;;5112643;28;20099;-82
2022/10/23 05:02:45;;;;;;;40.78;35.42;;;;;;;;;;5112809;28;20036;-83
2022/10/23 05:05:11;;;;;;;36.40;31.73;;;;;;;;;;5112834;28;20490;-83
2022/10/23 05:07:37;;;;;;;37.92;33.53;;;;;;;;;;5112600;28;20055;-83
2022/10/23 05:10:04;;;;;;;41.50;31.80;;;;;;;;;;5112704;28;20557;-82
2022/10/23 05:12:30;;;;;;;53.50;42.17;;;;;;;;;;5112577;28;20020;-83
2022/10/23 05:14:57;;;;;;;34.10;30.35;;;;;;;;;;5112753;28;20081;-82
2022/10/23 05:17:32;;;;;;;40.45;32.90;;;;;;;;;;5112639;28;20023;-82
2022/10/23 05:20:00;;;;;;;36.17;31.15;;;;;;;;;;5094456;28;20427;-82
2022/10/23 05:22:27;;;;;;;52.90;44.15;;;;;;;;;;5112489;28;20116;-82
2022/10/23 05:24:54;;;;;;;49.67;42.70;;;;;;;;;;5116442;28;20028;-82
2022/10/23 05:27:20;;;;;;;44.33;38.45;;;;;;;;;;5116394;28;20500;-83
2022/10/23 05:29:46;;;;;;;45.72;39.00;;;;;;;;;;5116483;28;20058;-82
2022/10/23 05:32:14;;;;;;;47.17;40.35;;;;;;;;;;5116571;28;20059;-82
2022/10/23 05:34:40;;;;;;;40.83;35.35;;;;;;;;;;5116381;28;20084;-83
2022/10/23 05:37:08;;;;;;;40.53;34.38;;;;;;;;;;5116475;28;20030;-82
2022/10/23 05:39:35;;;;;;;35.97;31.85;;;;;;;;;;5116220;28;20039;-82
2022/10/23 05:42:01;;;;;;;40.70;34.10;;;;;;;;;;5116195;28;20039;-82
2022/10/23 05:44:27;;;;;;;51.30;44.10;;;;;;;;;;5116072;28;20044;-82
2022/10/23 05:46:53;;;;;;;53.22;45.75;;;;;;;;;;5116208;28;20020;-82
2022/10/23 05:49:19;;;;;;;59.78;48.78;;;;;;;;;;5116059;28;20030;-82
2022/10/23 05:51:45;;;;;;;73.32;58.00;;;;;;;;;;5093910;28;20087;-81
2022/10/23 05:54:11;;;;;;;66.63;51.85;;;;;;;;;;5095225;28;20116;-82
2022/10/23 05:56:40;;;;;;;71.32;56.72;;;;;;;;;;5095349;28;20032;-83
2022/10/23 05:59:06;;;;;;;64.53;54.30;;;;;;;;;;5095551;28;20117;-82
2022/10/23 06:01:33;;;;;;;64.30;55.00;;;;;;;;;;5095230;28;20132;-82
2022/10/23 06:04:00;;;;;;;72.82;60.25;;;;;;;;;;5095520;28;20024;-81
2022/10/23 06:06:26;;;;;;;65.90;56.83;;;;;;;;;;5095479;28;20060;-82
2022/10/23 06:08:52;;;;;;;61.25;52.33;;;;;;;;;;5095493;28;20028;-82
2022/10/23 06:11:18;;;;;;;49.85;42.55;;;;;;;;;;5095406;28;20030;-81
2022/10/23 06:13:45;;;;;;;38.20;32.13;;;;;;;;;;5095341;28;20024;-82
2022/10/23 06:16:12;;;;;;;40.22;33.08;;;;;;;;;;5095366;28;20024;-82
2022/10/23 06:18:38;;;;;;;39.85;32.65;;;;;;;;;;5095078;28;20379;-82
2022/10/23 06:21:05;;;;;;;59.50;51.28;;;;;;;;;;5095105;28;20060;-82
2022/10/23 06:23:31;;;;;;;46.50;38.83;;;;;;;;;;5094964;28;20024;-81
2022/10/23 06:25:58;;;;;;;32.95;27.48;;;;;;;;;;5094986;28;20531;-82
2022/10/23 06:28:24;;;;;;;45.35;29.73;;;;;;;;;;5099407;28;20099;-82
2022/10/23 06:30:50;;;;;;;34.55;29.52;;;;;;;;;;5094788;28;20035;-82
2022/10/23 06:33:16;;;;;;;31.15;26.25;;;;;;;;;;5094804;28;20031;-82
2022/10/23 06:35:43;;;;;;;32.88;28.85;;;;;;;;;;5094414;28;20055;-81
2022/10/23 06:38:09;;;;;;;31.33;27.98;;;;;;;;;;5094845;28;20099;-82
2022/10/23 06:40:36;;;;;;;35.63;30.45;;;;;;;;;;5094404;28;20360;-82
2022/10/23 06:43:02;;;;;;;35.13;29.42;;;;;;;;;;5094700;28;20032;-82
2022/10/23 06:45:28;;;;;;;35.90;29.73;;;;;;;;;;5094634;28;20028;-82
2022/10/23 06:47:55;;;;;;;39.72;34.75;;;;;;;;;;5094498;28;20056;-82
2022/10/23 06:50:21;;;;;;;46.55;37.00;;;;;;;;;;5095684;28;20035;-82
2022/10/23 06:52:47;;;;;;;45.90;36.47;;;;;;;;;;5114717;28;20103;-82
2022/10/23 06:55:13;;;;;;;44.22;37.25;;;;;;;;;;5114832;28;20031;-80
2022/10/23 06:57:39;;;;;;;38.92;31.75;;;;;;;;;;5114552;28;20020;-81
2022/10/23 07:00:06;;;;;;;45.25;37.90;;;;;;;;;;5114677;28;20032;-80
2022/10/23 07:02:32;;;;;;;44.40;38.22;;;;;;;;;;5114691;28;20067;-80
2022/10/23 07:04:58;;;;;;;39.53;31.60;;;;;;;;;;5114254;28;20034;-80
2022/10/23 07:07:24;;;;;;;53.50;38.75;;;;;;;;;;5114592;28;20025;-80
2022/10/23 07:09:50;;;;;;;38.83;32.42;;;;;;;;;;5114270;28;20034;-80
2022/10/23 07:12:16;;;;;;;37.38;33.42;;;;;;;;;;5114475;28;20424;-80
2022/10/23 07:14:42;;;;;;;39.80;32.88;;;;;;;;;;5114355;28;20023;-81
2022/10/23 07:17:08;;;;;;;46.28;38.78;;;;;;;;;;5114335;28;20111;-81
2022/10/23 07:19:34;;;;;;;38.65;32.03;;;;;;;;;;5114364;28;20038;-81
2022/10/23 07:22:00;;;;;;;46.03;37.47;;;;;;;;;;5114138;28;20027;-80
2022/10/23 07:24:27;;;;;;;40.20;35.33;;;;;;;;;;5114246;28;20027;-80
2022/10/23 07:26:53;;;;;;;49.42;40.28;;;;;;;;;;5114015;28;20028;-80
2022/10/23 07:29:19;;;;;;;46.40;38.90;;;;;;;;;;5114254;28;20035;-80
2022/10/23 07:31:45;;;;;;;42.13;37.63;;;;;;;;;;5113894;28;20024;-81
2022/10/23 07:34:11;;;;;;;44.75;37.97;;;;;;;;;;5113780;28;20031;-80
2022/10/23 07:36:37;;;;;;;41.35;33.50;;;;;;;;;;5113967;28;20059;-81
2022/10/23 07:39:03;;;;;;;41.60;33.90;;;;;;;;;;5113595;28;20035;-81
2022/10/23 07:41:29;;;;;;;42.47;36.55;;;;;;;;;;5113857;28;20043;-80
2022/10/23 07:43:55;;;;;;;42.80;37.28;;;;;;;;;;5113551;28;20028;-80
2022/10/23 07:46:22;;;;;;;40.92;35.00;;;;;;;;;;5113024;28;20034;-80
2022/10/23 07:48:48;;;;;;;42.95;36.90;;;;;;;;;;5113713;28;20063;-81
2022/10/23 07:51:15;;;;;;;45.10;37.92;;;;;;;;;;5113368;28;20498;-79
2022/10/23 07:53:42;;;;;;;42.33;35.55;;;;;;;;;;5113615;28;20055;-80
2022/10/23 07:56:28;;;;;;;37.78;32.58;;;;;;;;;;5113442;28;20463;-81
2022/10/23 07:58:55;;;;;;;32.83;28.63;;;;;;;;;;5113291;28;20489;-81
2022/10/23 08:01:31;;;;;;;33.83;28.15;;;;;;;;;;5113528;28;20039;-80
2022/10/23 08:03:57;;;;;;;31.88;25.33;;;;;;;;;;5113385;28;20031;-82
2022/10/23 08:06:24;;;;;;;31.83;26.55;;;;;;;;;;5113482;28;20028;-80
2022/10/23 08:08:50;;;;;;;30.67;27.38;;;;;;;;;;5113196;28;20039;-80
2022/10/23 08:11:19;;;;;;;29.58;25.35;;;;;;;;;;5113350;28;20035;-80
2022/10/23 08:13:45;;;;;;;27.27;23.85;;;;;;;;;;5113128;28;20512;-81
2022/10/23 08:16:11;;;;;;;27.88;23.30;;;;;;;;;;5113170;28;20027;-81
2022/10/23 08:18:38;;;;;;;27.65;23.80;;;;;;;;;;5113001;28;20533;-80
2022/10/23 08:21:04;;;;;;;27.27;22.83;;;;;;;;;;5112978;28;20032;-81
2022/10/23 08:23:31;;;;;;;27.95;24.30;;;;;;;;;;5113053;28;20031;-80
2022/10/23 08:25:59;;;;;;;23.88;20.73;;;;;;;;;;5112907;28;20103;-80
2022/10/23 08:28:25;;;;;;;25.25;22.50;;;;;;;;;;5113139;28;20030;-79
2022/10/23 08:30:51;;;;;;;27.25;23.13;;;;;;;;;;5112831;28;20107;-81
2022/10/23 08:33:17;;;;;;;27.88;22.67;;;;;;;;;;5112920;28;20035;-81
2022/10/23 08:35:43;;;;;;;24.48;21.88;;;;;;;;;;5112826;28;20377;-80
2022/10/23 08:38:10;;;;;;;22.17;20.08;;;;;;;;;;5112851;28;20024;-81
2022/10/23 08:40:36;;;;;;;23.30;20.77;;;;;;;;;;5112615;28;20551;-80
2022/10/23 08:43:12;;;;;;;24.60;21.90;;;;;;;;;;5112716;28;20467;-80
2022/10/23 08:45:44;;;;;;;24.17;21.65;;;;;;;;;;5112722;28;20027;-80
2022/10/23 08:48:14;;;;;;;24.98;22.30;;;;;;;;;;5112762;28;20028;-79
2022/10/23 08:50:59;;;;;;;25.00;22.40;;;;;;;;;;5112876;28;20394;-81
2022/10/23 08:53:29;;;;;;;29.35;23.92;;;;;;;;;;5112622;28;20043;-81
2022/10/23 08:55:59;;;;;;;25.10;22.40;;;;;;;;;;5112801;28;20385;-79
2022/10/23 08:58:30;;;;;;;26.48;23.27;;;;;;;;;;5116258;28;20026;-80
2022/10/23 09:00:57;;;;;;;28.02;22.65;;;;;;;;;;5116847;28;20057;-81
2022/10/23 09:03:23;;;;;;;27.02;23.50;;;;;;;;;;5116766;28;20092;-80
2022/10/23 09:05:57;;;;;;;25.63;22.35;;;;;;;;;;5116957;28;20124;-80
2022/10/23 09:08:27;;;;;;;25.92;23.20;;;;;;;;;;5116858;28;20032;-80
2022/10/23 09:11:04;;;;;;;26.13;21.13;;;;;;;;;;5116686;28;20019;-80
2022/10/23 09:13:30;;;;;;;22.60;20.20;;;;;;;;;;5116815;28;20110;-79
2022/10/23 09:16:14;;;;;;;22.10;19.30;;;;;;;;;;5116336;28;20027;-79
2022/10/23 09:18:41;;;;;;;22.55;20.20;;;;;;;;;;5116512;28;20050;-81
2022/10/23 09:21:10;;;;;;;22.42;19.00;;;;;;;;;;5115951;28;20035;-82
2022/10/23 09:23:36;;;;;;;20.58;18.52;;;;;;;;;;5116481;28;20054;-82
2022/10/23 09:26:07;;;;;;;22.90;18.20;;;;;;;;;;5116657;28;20028;-80
2022/10/23 09:28:36;;;;;;;22.75;19.00;;;;;;;;;;5116174;28;20095;-80
2022/10/23 09:31:20;;;;;;;19.13;16.90;;;;;;;;;;5116466;28;20031;-80
2022/10/23 09:33:56;;;;;;;19.98;17.90;;;;;;;;;;5116273;28;20470;-80
2022/10/23 09:36:24;;;;;;;19.08;15.45;;;;;;;;;;5115853;28;20034;-81
2022/10/23 09:38:52;;;;;;;20.08;16.45;;;;;;;;;;5116070;28;20023;-81
2022/10/23 09:41:24;;;;;;;21.40;17.17;;;;;;;;;;5115767;28;20382;-80
2022/10/23 09:44:08;;;;;;;21.05;18.80;;;;;;;;;;5116164;28;20030;-80
2022/10/23 09:46:41;;;;;;;24.58;21.10;;;;;;;;;;5116143;28;20055;-79
2022/10/23 09:49:18;;;;;;;23.13;19.50;;;;;;;;;;5115781;28;20023;-81
2022/10/23 09:52:02;;;;;;;24.30;21.77;;;;;;;;;;5115766;28;20087;-80
2022/10/23 09:54:28;;;;;;;;;;;;;;;;;;5116250;28;20024;-80
2022/10/23 09:56:55;;;;;;;19.35;16.90;;;;;;;;;;5116004;28;20384;-80
2022/10/23 09:59:29;;;;;;;21.17;18.23;;;;;;;;;;5115653;28;20139;-79
2022/10/23 10:01:58;;;;;;;22.58;18.98;;;;;;;;;;5115820;28;20089;-82
2022/10/23 10:04:50;;;;;;;17.70;15.98;;;;;;;;;;5115633;28;20028;-80
2022/10/23 10:07:35;;;;;;;18.23;15.60;;;;;;;;;;5111012;28;20394;-80
2022/10/23 10:10:01;;;;;;;;;;;;;;;;;;5115049;28;20475;-80
2022/10/23 10:12:46;;;;;;;17.33;15.52;;;;;;;;;;5115533;28;19918;-80
2022/10/23 10:15:17;;;;;;;20.42;13.85;;;;;;;;;;5128252;27;20363;-80
2022/10/23 10:17:45;;;;;;;15.70;14.00;;;;;;;;;;5135844;27;20027;-81
2022/10/23 10:20:18;;;;;;;15.70;13.15;;;;;;;;;;5136027;27;20041;-81
2022/10/23 10:23:03;;;;;;;13.38;11.48;;;;;;;;;;5135821;27;20038;-81
2022/10/23 10:25:48;;;;;;;20.95;13.93;;;;;;;;;;5135645;27;20027;-81
2022/10/23 10:28:32;;;;;;;16.48;14.73;;;;;;;;;;5135872;27;20027;-80
2022/10/23 10:31:17;;;;;;;18.98;16.48;;;;;;;;;;5135709;27;20023;-81
2022/10/23 10:33:46;;;;;;;21.13;16.50;;;;;;;;;;5135546;27;20485;-79
2022/10/23 10:36:26;;;;;;;15.45;12.63;;;;;;;;;;5135633;27;20035;-81
2022/10/23 10:38:59;;;;;;;15.10;12.50;;;;;;;;;;5135667;27;20023;-82
2022/10/23 10:41:44;;;;;;;13.18;11.50;;;;;;;;;;5135219;27;20130;-81
2022/10/23 10:44:13;;;;;;;14.27;10.75;;;;;;;;;;5135235;27;20015;-81
2022/10/23 10:46:57;;;;;;;26.70;21.63;;;;;;;;;;5135523;27;20031;-81
2022/10/23 10:49:26;;;;;;;15.43;11.98;;;;;;;;;;5116940;27;20023;-79
2022/10/23 10:52:09;;;;;;;15.63;12.45;;;;;;;;;;5134930;27;20047;-79
2022/10/23 10:54:35;;;;;;;12.30;9.25;;;;;;;;;;5134379;27;20066;-80
2022/10/23 10:57:04;;;;;;;10.95;6.57;;;;;;;;;;5135161;27;20042;-80
2022/10/23 10:59:32;;;;;;;11.40;6.53;;;;;;;;;;5134926;27;20031;-81
2022/10/23 11:02:00;;;;;;;10.63;6.47;;;;;;;;;;5135171;27;20038;-81
2022/10/23 11:04:35;;;;;;;10.00;6.57;;;;;;;;;;5134437;27;20034;-80
2022/10/23 11:07:06;;;;;;;10.95;7.13;;;;;;;;;;5134731;27;20168;-82
2022/10/23 11:09:32;;;;;;;12.52;7.40;;;;;;;;;;5139959;27;20026;-83
2022/10/23 11:11:58;;;;;;;12.40;6.88;;;;;;;;;;5140457;27;20024;-79
2022/10/23 11:14:26;;;;;;;11.20;7.07;;;;;;;;;;5134664;27;20102;-81
2022/10/23 11:17:11;;;;;;;12.10;7.93;;;;;;;;;;5135086;27;20023;-79
2022/10/23 11:19:36;;;;;;;;;;;;;;;;;;5135268;27;20484;-81
2022/10/23 11:22:08;;;;;;;14.27;8.80;;;;;;;;;;5133093;27;19915;-82
2022/10/23 11:24:43;;;;;;;9.32;8.00;;;;;;;;;;5134612;27;20100;-79
2022/10/23 11:27:28;;;;;;;12.10;9.05;;;;;;;;;;5134473;27;20027;-80
2022/10/23 11:30:00;;;;;;;10.75;7.97;;;;;;;;;;5134580;27;20029;-80
2022/10/23 11:32:29;;;;;;;11.70;8.25;;;;;;;;;;5134030;27;20038;-78
2022/10/23 11:35:14;;;;;;;9.88;7.95;;;;;;;;;;5134484;27;20023;-78
2022/10/23 11:37:40;;;;;;;12.55;9.60;;;;;;;;;;5134279;27;20039;-81
2022/10/23 11:40:06;;;;;;;11.73;9.02;;;;;;;;;;5134421;27;20501;-81
2022/10/23 11:42:33;;;;;;;10.13;8.27;;;;;;;;;;5132323;27;20502;-80
2022/10/23 11:45:00;;;;;;;12.35;8.45;;;;;;;;;;5134303;27;20027;-81
2022/10/23 11:47:26;;;;;;;12.50;8.18;;;;;;;;;;5133902;27;20125;-79
2022/10/23 11:50:04;;;;;;;9.65;7.00;;;;;;;;;;5134133;27;20027;-79
2022/10/23 11:52:30;;;;;;;9.82;8.82;;;;;;;;;;5133165;27;20091;-81
2022/10/23 11:55:16;;;;;;;9.55;6.28;;;;;;;;;;5133976;27;20019;-80
2022/10/23 11:57:42;;;;;;;12.23;8.27;;;;;;;;;;5134030;27;20027;-78
2022/10/23 12:00:27;;;;;;;11.80;7.18;;;;;;;;;;5133748;27;20050;-80
2022/10/23 12:02:53;;;;;;;;;;;;;;;;;;5133879;27;20439;-81
2022/10/23 12:05:25;;;;;;;9.50;6.85;;;;;;;;;;5134088;27;19956;-80
2022/10/23 12:07:59;;;;;;;11.38;7.97;;;;;;;;;;5133196;27;20030;-79
2022/10/23 12:10:33;;;;;;;14.43;9.10;;;;;;;;;;5133838;27;20034;-83
2022/10/23 12:13:02;;;;;;;9.75;7.22;;;;;;;;;;5115415;27;20035;-83
2022/10/23 12:15:29;;;;;;;8.73;7.28;;;;;;;;;;5133389;27;20037;-80
2022/10/23 12:18:06;;;;;;;14.23;7.45;;;;;;;;;;5133480;27;20076;-79
2022/10/23 12:20:44;;;;;;;9.32;7.22;;;;;;;;;;5132334;27;20102;-81
2022/10/23 12:23:16;;;;;;;27.17;22.42;;;;;;;;;;5150381;27;20422;-80
2022/10/23 12:25:42;;;;;;;9.80;7.18;;;;;;;;;;5150777;27;20135;-80
2022/10/23 12:28:18;;;;;;;9.18;6.72;;;;;;;;;;5133256;27;20027;-79
2022/10/23 12:30:55;;;;;;;9.15;7.60;;;;;;;;;;5133213;27;20023;-80
2022/10/23 12:33:24;;;;;;;10.32;8.15;;;;;;;;;;5132920;27;20401;-81
2022/10/23 12:36:09;;;;;;;13.65;9.18;;;;;;;;;;5132875;27;20462;-79
2022/10/23 12:38:41;;;;;;;8.18;6.75;;;;;;;;;;5131810;27;20438;-80
2022/10/23 12:41:11;;;;;;;11.38;7.40;;;;;;;;;;5133326;27;20063;-80
2022/10/23 12:43:37;;;;;;;7.07;5.55;;;;;;;;;;5132315;27;20031;-82
2022/10/23 12:46:22;;;;;;;8.20;5.63;;;;;;;;;;5133270;27;20106;-79
2022/10/23 12:48:49;;;;;;;7.93;5.22;;;;;;;;;;5132878;28;20413;-78
2022/10/23 12:51:25;;;;;;;8.45;5.05;;;;;;;;;;5132859;28;20533;-79
2022/10/23 12:53:52;;;;;;;10.60;6.80;;;;;;;;;;5114830;28;20039;-81
2022/10/23 12:56:18;;;;;;;7.70;6.20;;;;;;;;;;5132491;28;20489;-79
2022/10/23 12:58:55;;;;;;;12.70;7.47;;;;;;;;;;5132768;28;20047;-81
2022/10/23 13:01:22;;;;;;;7.07;6.10;;;;;;;;;;5133032;28;20031;-79
2022/10/23 13:03:49;;;;;;;8.43;5.57;;;;;;;;;;5133263;28;20059;-80
2022/10/23 13:06:15;;;;;;;7.32;5.60;;;;;;;;;;5132984;28;20023;-79
2022/10/23 13:09:00;;;;;;;10.38;6.15;;;;;;;;;;5132940;28;20378;-80
2022/10/23 13:11:27;;;;;;;9.40;7.50;;;;;;;;;;5133022;28;20027;-81
2022/10/23 13:13:53;;;;;;;11.05;6.60;;;;;;;;;;5132929;28;20047;-79
2022/10/23 13:16:23;;;;;;;9.88;6.70;;;;;;;;;;5133132;28;20088;-79
2022/10/23 13:18:50;;;;;;;7.70;5.60;;;;;;;;;;5132428;28;20373;-79
2022/10/23 13:21:16;;;;;;;11.80;6.15;;;;;;;;;;5133056;28;20032;-80
2022/10/23 13:23:42;;;;;;;9.55;6.03;;;;;;;;;;5132709;28;20030;-80
2022/10/23 13:26:26;;;;;;;9.27;5.15;;;;;;;;;;5132649;28;20050;-82
2022/10/23 13:28:53;;;;;;;8.27;5.28;;;;;;;;;;5132759;28;20039;-81
2022/10/23 13:31:30;;;;;;;7.18;4.57;;;;;;;;;;5132687;28;20030;-82
2022/10/23 13:33:56;;;;;;;5.68;4.70;;;;;;;;;;5132636;28;20063;-79
2022/10/23 13:36:23;;;;;;;9.23;5.53;;;;;;;;;;5132794;28;20027;-80
2022/10/23 13:38:59;;;;;;;8.88;5.55;;;;;;;;;;5132986;28;20050;-81
2022/10/23 13:41:26;;;;;;;7.45;5.03;;;;;;;;;;5131906;28;20053;-81
2022/10/23 13:43:52;;;;;;;8.50;5.22;;;;;;;;;;5133479;27;20039;-80
2022/10/23 13:46:19;;;;;;;7.65;6.05;;;;;;;;;;5136500;27;20027;-81
2022/10/23 13:48:46;;;;;;;11.30;7.05;;;;;;;;;;5136624;27;20034;-79
2022/10/23 13:51:20;;;;;;;13.52;8.57;;;;;;;;;;5136193;27;20058;-81
2022/10/23 13:53:46;;;;;;;;;;;;;;;;;;5136662;27;20107;-80
2022/10/23 13:56:13;;;;;;;9.60;7.68;;;;;;;;;;5136551;27;20407;-80
2022/10/23 13:58:39;;;;;;;12.15;8.93;;;;;;;;;;5136490;27;20034;-77
2022/10/23 14:01:06;;;;;;;10.02;7.57;;;;;;;;;;5136335;27;20032;-79
2022/10/23 14:03:32;;;;;;;10.98;8.23;;;;;;;;;;5135926;27;20019;-81
2022/10/23 14:05:59;;;;;;;12.75;9.25;;;;;;;;;;5136057;27;20027;-81
2022/10/23 14:08:25;;;;;;;13.95;8.18;;;;;;;;;;5135931;27;20037;-80
2022/10/23 14:10:51;;;;;;;12.90;9.10;;;;;;;;;;5136045;27;20023;-80
2022/10/23 14:13:17;;;;;;;9.65;8.68;;;;;;;;;;5136089;27;20047;-81
2022/10/23 14:15:43;;;;;;;13.90;8.70;;;;;;;;;;5135682;27;20023;-79
2022/10/23 14:18:09;;;;;;;12.70;8.27;;;;;;;;;;5135442;27;20054;-78
2022/10/23 14:20:38;;;;;;;9.98;7.82;;;;;;;;;;5135501;27;20023;-81
2022/10/23 14:23:04;;;;;;;10.75;7.70;;;;;;;;;;5135966;27;20083;-81
2022/10/23 14:25:30;;;;;;;9.18;7.75;;;;;;;;;;5135595;27;20034;-82
2022/10/23 14:27:56;;;;;;;9.13;7.88;;;;;;;;;;5135927;27;20172;-81
2022/10/23 14:30:22;;;;;;;13.23;7.90;;;;;;;;;;5135690;27;20030;-79
2022/10/23 14:32:48;;;;;;;13.68;8.50;;;;;;;;;;5134996;27;20046;-79
2022/10/23 14:35:15;;;;;;;11.98;9.82;;;;;;;;;;5135714;27;20031;-80
2022/10/23 14:37:41;;;;;;;13.45;10.30;;;;;;;;;;5135204;27;20046;-79